Observation data for Anton on 04/06/2020      Previous  Date       Current Mesonet Observations  Soil Data  Daily Summary Page  Observations in Plain Language
KAOS 060500Z 15013KT 13/11 A2996 RMK A01 T01260113  RH  095%=      5-min Rain = 0
KAOS 060505Z 15013KT 13/11 A2995 RMK A01 T01250113  RH  095%=      5-min Rain = 0
KAOS 060510Z 15013KT 13/11 A2996 RMK A01 T01260113  RH  095%=      5-min Rain = 0
KAOS 060515Z 15012KT 13/11 A2996 RMK A01 T01260113  RH  095%=      5-min Rain = 0
KAOS 060520Z 15013KT 13/11 A2996 RMK A01 T01260113  RH  096%=      5-min Rain = 0
KAOS 060525Z 15013KT 13/11 A2996 RMK A01 T01250113  RH  096%=      5-min Rain = 0
KAOS 060530Z 15011KT 12/11 A2996 RMK A01 T01230111  RH  096%=      5-min Rain = 0
KAOS 060535Z 15011KT 12/11 A2996 RMK A01 T01220110  RH  096%=      5-min Rain = 0
KAOS 060540Z 16011KT 12/11 A2996 RMK A01 T01210110  RH  096%=      5-min Rain = 0
KAOS 060545Z 16011KT 12/11 A2996 RMK A01 T01200109  RH  096%=      5-min Rain = 0
KAOS 060550Z 16012KT 12/11 A2997 RMK A01 T01190109  RH  097%=      5-min Rain = 0
KAOS 060555Z 15012KT 12/11 A2996 RMK A01 T01190109  RH  097%=      5-min Rain = 0
KAOS 060600Z 15011KT 12/11 A2996 RMK A01 T01180109  RH  097%=      5-min Rain = 0
KAOS 060605Z 15010KT 12/11 A2996 RMK A01 T01190109  RH  097%=      5-min Rain = 0
KAOS 060610Z 15011KT 12/11 A2996 RMK A01 T01200111  RH  097%=      5-min Rain = 0
KAOS 060615Z 16011KT 12/11 A2996 RMK A01 T01220112  RH  097%=      5-min Rain = 0
KAOS 060620Z 16011KT 12/11 A2996 RMK A01 T01230114  RH  097%=      5-min Rain = 0
KAOS 060625Z 16010KT 13/12 A2996 RMK A01 T01250115  RH  097%=      5-min Rain = 0
KAOS 060630Z 16010KT 13/12 A2996 RMK A01 T01270116  RH  096%=      5-min Rain = 0
KAOS 060635Z 16011KT 13/12 A2996 RMK A01 T01300118  RH  096%=      5-min Rain = 0
KAOS 060640Z 16013G19KT 13/12 A2996 RMK A01 T01330121  RH  096%=      5-min Rain = 0
KAOS 060645Z 17015G21KT 14/12 A2996 RMK A01 T01370123  RH  095%=      5-min Rain = 0
KAOS 060650Z 17018G26KT 14/12 A2995 RMK A01 T01380124  RH  095%=      5-min Rain = 0
KAOS 060655Z 17019G25KT 14/12 A2996 RMK A01 T01380124  RH  095%=      5-min Rain = 0
KAOS 060700Z 17019G24KT 14/12 A2996 RMK A01 T01390124  RH  095%=      5-min Rain = 0
KAOS 060705Z 17018KT 14/12 A2996 RMK A01 T01390124  RH  095%=      5-min Rain = 0
KAOS 060710Z 17017KT 14/12 A2995 RMK A01 T01390124  RH  094%=      5-min Rain = 0
KAOS 060715Z 18017G25KT 14/12 A2995 RMK A01 T01400124  RH  094%=      5-min Rain = 0
KAOS 060720Z 18019G25KT 14/12 A2995 RMK A01 T01400124  RH  094%=      5-min Rain = 0
KAOS 060725Z 18019G25KT 14/12 A2995 RMK A01 T01400123  RH  093%=      5-min Rain = 0
KAOS 060730Z 18018KT 14/12 A2995 RMK A01 T01400123  RH  093%=      5-min Rain = 0
KAOS 060735Z 18018KT 14/12 A2995 RMK A01 T01410122  RH  092%=      5-min Rain = 0
KAOS 060740Z 17016KT 14/12 A2995 RMK A01 T01410122  RH  092%=      5-min Rain = 0
KAOS 060745Z 18015KT 14/12 A2995 RMK A01 T01410122  RH  091%=      5-min Rain = 0
KAOS 060750Z 18015G22KT 14/12 A2995 RMK A01 T01410120  RH  091%=      5-min Rain = 0
KAOS 060755Z 18018KT 14/12 A2995 RMK A01 T01400118  RH  090%=      5-min Rain = 0
KAOS 060800Z 18019G24KT 14/12 A2995 RMK A01 T01400117  RH  089%=      5-min Rain = 0
KAOS 060805Z 18017KT 14/12 A2995 RMK A01 T01400117  RH  089%=      5-min Rain = 0
KAOS 060810Z 18017G22KT 14/12 A2995 RMK A01 T01400117  RH  089%=      5-min Rain = 0
KAOS 060815Z 19017G24KT 14/12 A2995 RMK A01 T01410117  RH  088%=      5-min Rain = 0
KAOS 060820Z 19017G23KT 14/12 A2995 RMK A01 T01410116  RH  088%=      5-min Rain = 0
KAOS 060825Z 18016KT 14/12 A2995 RMK A01 T01420116  RH  088%=      5-min Rain = 0
KAOS 060830Z 18019G24KT 14/12 A2995 RMK A01 T01420115  RH  087%=      5-min Rain = 0
KAOS 060835Z 18017G24KT 14/12 A2995 RMK A01 T01430115  RH  087%=      5-min Rain = 0
KAOS 060840Z 18015G21KT 14/12 A2995 RMK A01 T01430116  RH  087%=      5-min Rain = 0
KAOS 060845Z 18013KT 14/12 A2995 RMK A01 T01430116  RH  087%=      5-min Rain = 0
KAOS 060850Z 19016G21KT 14/12 A2994 RMK A01 T01430115  RH  087%=      5-min Rain = 0
KAOS 060855Z 19016KT 14/12 A2995 RMK A01 T01430116  RH  087%=      5-min Rain = 0
KAOS 060900Z 19015KT 14/12 A2994 RMK A01 T01430115  RH  087%=      5-min Rain = 0
KAOS 060905Z 19017KT 14/11 A2994 RMK A01 T01430114  RH  086%=      5-min Rain = 0
KAOS 060910Z 18014KT 14/11 A2994 RMK A01 T01430114  RH  086%=      5-min Rain = 0
KAOS 060915Z 19014KT 14/11 A2994 RMK A01 T01420114  RH  086%=      5-min Rain = 0
KAOS 060920Z 19015KT 14/11 A2994 RMK A01 T01420113  RH  086%=      5-min Rain = 0
KAOS 060925Z 19013KT 14/11 A2994 RMK A01 T01420113  RH  086%=      5-min Rain = 0
KAOS 060930Z 19012KT 14/11 A2994 RMK A01 T01410114  RH  086%=      5-min Rain = 0
KAOS 060935Z 19013KT 14/11 A2994 RMK A01 T01410114  RH  086%=      5-min Rain = 0
KAOS 060940Z 19013KT 14/11 A2994 RMK A01 T01410113  RH  086%=      5-min Rain = 0
KAOS 060945Z 19013KT 14/11 A2994 RMK A01 T01410112  RH  086%=      5-min Rain = 0
KAOS 060950Z 20012KT 14/11 A2994 RMK A01 T01400111  RH  086%=      5-min Rain = 0
KAOS 060955Z 19012KT 14/11 A2994 RMK A01 T01390111  RH  086%=      5-min Rain = 0
KAOS 061000Z 19012KT 14/11 A2994 RMK A01 T01390111  RH  086%=      5-min Rain = 0
KAOS 061005Z 19012KT 14/11 A2994 RMK A01 T01390111  RH  086%=      5-min Rain = 0
KAOS 061010Z 19010KT 14/11 A2994 RMK A01 T01390111  RH  086%=      5-min Rain = 0
KAOS 061015Z 19010KT 14/11 A2994 RMK A01 T01390111  RH  087%=      5-min Rain = 0
KAOS 061020Z 19010KT 14/11 A2994 RMK A01 T01390111  RH  086%=      5-min Rain = 0
KAOS 061025Z 19010KT 14/11 A2993 RMK A01 T01390111  RH  087%=      5-min Rain = 0
KAOS 061030Z 19010KT 14/11 A2993 RMK A01 T01380111  RH  087%=      5-min Rain = 0
KAOS 061035Z 19011KT 14/11 A2993 RMK A01 T01380112  RH  087%=      5-min Rain = 0
KAOS 061040Z 19009KT 14/11 A2993 RMK A01 T01380111  RH  087%=      5-min Rain = 0
KAOS 061045Z 19009KT 14/11 A2994 RMK A01 T01370111  RH  087%=      5-min Rain = 0
KAOS 061050Z 19008KT 14/11 A2994 RMK A01 T01370112  RH  087%=      5-min Rain = 0
KAOS 061055Z 19009KT 14/11 A2994 RMK A01 T01380112  RH  088%=      5-min Rain = 0
KAOS 061100Z 18007KT 14/11 A2994 RMK A01 T01370112  RH  087%=      5-min Rain = 0
KAOS 061105Z 18007KT 14/11 A2994 RMK A01 T01370112  RH  088%=      5-min Rain = 0
KAOS 061110Z 19007KT 14/11 A2994 RMK A01 T01370111  RH  088%=      5-min Rain = 0
KAOS 061115Z 19009KT 14/11 A2994 RMK A01 T01370111  RH  088%=      5-min Rain = 0
KAOS 061120Z 19010KT 14/11 A2994 RMK A01 T01370111  RH  087%=      5-min Rain = 0
KAOS 061125Z 20009KT 14/11 A2994 RMK A01 T01370111  RH  087%=      5-min Rain = 0
KAOS 061130Z 19008KT 14/11 A2995 RMK A01 T01370111  RH  087%=      5-min Rain = 0
KAOS 061135Z 19009KT 14/11 A2995 RMK A01 T01370111  RH  087%=      5-min Rain = 0
KAOS 061140Z 19012KT 14/11 A2995 RMK A01 T01380112  RH  087%=      5-min Rain = 0
KAOS 061145Z 19012KT 14/11 A2995 RMK A01 T01380112  RH  087%=      5-min Rain = 0
KAOS 061150Z 20012KT 14/11 A2996 RMK A01 T01380111  RH  087%=      5-min Rain = 0
KAOS 061155Z 19012KT 14/11 A2995 RMK A01 T01370111  RH  087%=      5-min Rain = 0
KAOS 061200Z 19010KT 14/11 A2995 RMK A01 T01370111  RH  087%=      5-min Rain = 0
KAOS 061205Z 19012KT 14/11 A2995 RMK A01 T01370110  RH  087%=      5-min Rain = 0
KAOS 061210Z 20010KT 14/11 A2996 RMK A01 T01370111  RH  087%=      5-min Rain = 0
KAOS 061215Z 20010KT 14/11 A2996 RMK A01 T01370111  RH  087%=      5-min Rain = 0
KAOS 061220Z 20010KT 14/11 A2996 RMK A01 T01370111  RH  087%=      5-min Rain = 0
KAOS 061225Z 20008KT 14/11 A2996 RMK A01 T01370111  RH  088%=      5-min Rain = 0
KAOS 061230Z 20008KT 14/11 A2996 RMK A01 T01370111  RH  088%=      5-min Rain = 0
KAOS 061235Z 20007KT 14/11 A2996 RMK A01 T01370112  RH  088%=      5-min Rain = 0
KAOS 061240Z 21007KT 14/11 A2996 RMK A01 T01370112  RH  088%=      5-min Rain = 0
KAOS 061245Z 20006KT 14/11 A2997 RMK A01 T01370112  RH  088%=      5-min Rain = 0
KAOS 061250Z 20007KT 14/11 A2997 RMK A01 T01370112  RH  088%=      5-min Rain = 0
KAOS 061255Z 20007KT 14/11 A2997 RMK A01 T01370112  RH  088%=      5-min Rain = 0
KAOS 061300Z 19008KT 14/11 A2997 RMK A01 T01380112  RH  088%=      5-min Rain = 0
KAOS 061305Z 18008KT 14/11 A2997 RMK A01 T01370112  RH  088%=      5-min Rain = 0
KAOS 061310Z 19007KT 14/11 A2997 RMK A01 T01370112  RH  088%=      5-min Rain = 0
KAOS 061315Z 19006KT 14/11 A2997 RMK A01 T01380112  RH  088%=      5-min Rain = 0
KAOS 061320Z 20005KT 14/11 A2997 RMK A01 T01380113  RH  088%=      5-min Rain = 0
KAOS 061325Z 20006KT 14/11 A2997 RMK A01 T01390113  RH  087%=      5-min Rain = 0
KAOS 061330Z 22006KT 14/11 A2997 RMK A01 T01390113  RH  087%=      5-min Rain = 0
KAOS 061335Z 20005KT 14/11 A2998 RMK A01 T01400114  RH  088%=      5-min Rain = 0
KAOS 061340Z 20007KT 14/11 A2998 RMK A01 T01400114  RH  087%=      5-min Rain = 0
KAOS 061345Z 21007KT 14/11 A2999 RMK A01 T01410114  RH  087%=      5-min Rain = 0
KAOS 061350Z 20008KT 14/11 A2999 RMK A01 T01410114  RH  087%=      5-min Rain = 0
KAOS 061355Z 19007KT 14/12 A2999 RMK A01 T01420115  RH  087%=      5-min Rain = 0
KAOS 061400Z 19008KT 14/11 A2999 RMK A01 T01420114  RH  086%=      5-min Rain = 0
KAOS 061405Z 19008KT 14/12 A2999 RMK A01 T01430115  RH  086%=      5-min Rain = 0
KAOS 061410Z 20010KT 14/12 A2999 RMK A01 T01440115  RH  086%=      5-min Rain = 0
KAOS 061415Z 21011KT 14/12 A30 RMK A01 T01440115  RH  086%=      5-min Rain = 0
KAOS 061420Z 20012KT 14/12 A3001 RMK A01 T01440115  RH  086%=      5-min Rain = 0
KAOS 061425Z 20011KT 15/12 A3001 RMK A01 T01450116  RH  086%=      5-min Rain = 0
KAOS 061430Z 20011KT 15/12 A30 RMK A01 T01450116  RH  086%=      5-min Rain = 0
KAOS 061435Z 20009KT 15/12 A30 RMK A01 T01450116  RH  086%=      5-min Rain = 0
KAOS 061440Z 20012KT 15/12 A3001 RMK A01 T01460116  RH  086%=      5-min Rain = 0
KAOS 061445Z 20011KT 15/12 A3001 RMK A01 T01460117  RH  085%=      5-min Rain = 0
KAOS 061450Z 20011KT 15/12 A3001 RMK A01 T01480117  RH  085%=      5-min Rain = 0
KAOS 061455Z 19012KT 15/12 A3001 RMK A01 T01480117  RH  085%=      5-min Rain = 0
KAOS 061500Z 20011KT 15/12 A3001 RMK A01 T01480118  RH  085%=      5-min Rain = 0
KAOS 061505Z 20010KT 15/12 A3001 RMK A01 T01500118  RH  084%=      5-min Rain = 0
KAOS 061510Z 19009KT 15/12 A3001 RMK A01 T01500118  RH  084%=      5-min Rain = 0
KAOS 061515Z 19009KT 15/12 A3001 RMK A01 T01510118  RH  084%=      5-min Rain = 0
KAOS 061520Z 18011KT 15/12 A3001 RMK A01 T01520121  RH  085%=      5-min Rain = 0
KAOS 061525Z 19012KT 15/12 A3001 RMK A01 T01510122  RH  086%=      5-min Rain = 0
KAOS 061530Z 18011KT 15/12 A3001 RMK A01 T01520121  RH  085%=      5-min Rain = 0
KAOS 061535Z 17012KT 15/12 A3001 RMK A01 T01530122  RH  085%=      5-min Rain = 0
KAOS 061540Z 17012KT 15/12 A3001 RMK A01 T01530121  RH  085%=      5-min Rain = 0
KAOS 061545Z 19013KT 15/12 A3002 RMK A01 T01540121  RH  084%=      5-min Rain = 0
KAOS 061550Z 19012KT 16/12 A3002 RMK A01 T01550121  RH  083%=      5-min Rain = 0
KAOS 061555Z 19012KT 15/12 A3002 RMK A01 T01540122  RH  084%=      5-min Rain = 0
KAOS 061600Z 18011KT 15/13 A3001 RMK A01 T01540125  RH  086%=      5-min Rain = 0
KAOS 061605Z 16011KT 15/13 A30 RMK A01 T01530126  RH  087%=      5-min Rain = 0
KAOS 061610Z 17010KT 16/13 A30 RMK A01 T01550130  RH  088%=      5-min Rain = 0
KAOS 061615Z 16011KT 16/13 A30 RMK A01 T01570129  RH  087%=      5-min Rain = 0
KAOS 061620Z 17013KT 16/13 A3001 RMK A01 T01570127  RH  086%=      5-min Rain = 0
KAOS 061625Z 17012KT 16/13 A3001 RMK A01 T01570128  RH  086%=      5-min Rain = 0
KAOS 061630Z 17010KT 16/13 A3001 RMK A01 T01580128  RH  086%=      5-min Rain = 0
KAOS 061635Z 17011KT 16/13 A3001 RMK A01 T01580128  RH  086%=      5-min Rain = 0
KAOS 061640Z 18013KT 16/13 A3001 RMK A01 T01560129  RH  087%=      5-min Rain = 0
KAOS 061645Z 17011KT 16/13 A3001 RMK A01 T01570129  RH  087%=      5-min Rain = 0
KAOS 061650Z 18012KT 16/13 A3001 RMK A01 T01610130  RH  085%=      5-min Rain = 0
KAOS 061655Z 17013KT 16/13 A3001 RMK A01 T01630130  RH  084%=      5-min Rain = 0
KAOS 061700Z 17012KT 17/13 A30 RMK A01 T01690133  RH  083%=      5-min Rain = 0
KAOS 061705Z 17013KT 17/13 A30 RMK A01 T01710130  RH  080%=      5-min Rain = 0
KAOS 061710Z 17013KT 17/13 A30 RMK A01 T01720130  RH  080%=      5-min Rain = 0
KAOS 061715Z 17014KT 17/13 A30 RMK A01 T01710130  RH  080%=      5-min Rain = 0
KAOS 061720Z 16014KT 17/13 A30 RMK A01 T01730131  RH  079%=      5-min Rain = 0
KAOS 061725Z 16012KT 18/13 A30 RMK A01 T01770130  RH  077%=      5-min Rain = 0
KAOS 061730Z 17015KT 18/13 A30 RMK A01 T01820133  RH  076%=      5-min Rain = 0
KAOS 061735Z 17015KT 18/13 A30 RMK A01 T01840131  RH  074%=      5-min Rain = 0
KAOS 061740Z 17014KT 18/13 A30 RMK A01 T01830128  RH  073%=      5-min Rain = 0
KAOS 061745Z 18012KT 18/13 A2999 RMK A01 T01840129  RH  073%=      5-min Rain = 0
KAOS 061750Z 17013KT 19/13 A2999 RMK A01 T01880131  RH  072%=      5-min Rain = 0
KAOS 061755Z 17013KT 19/13 A2999 RMK A01 T01910132  RH  071%=      5-min Rain = 0
KAOS 061800Z 17013KT 20/13 A2999 RMK A01 T01980131  RH  068%=      5-min Rain = 0
KAOS 061805Z 18012KT 20/12 A2999 RMK A01 T02020122  RH  063%=      5-min Rain = 0
KAOS 061810Z 18013KT 20/12 A2999 RMK A01 T02020116  RH  060%=      5-min Rain = 0
KAOS 061815Z 19009KT 21/12 A2999 RMK A01 T02080121  RH  059%=      5-min Rain = 0
KAOS 061820Z 19010KT 21/12 A2999 RMK A01 T02140119  RH  057%=      5-min Rain = 0
KAOS 061825Z 19011KT 22/12 A2998 RMK A01 T02200119  RH  054%=      5-min Rain = 0
KAOS 061830Z 20011KT 22/12 A2998 RMK A01 T02210119  RH  054%=      5-min Rain = 0
KAOS 061835Z 19012KT 22/11 A2998 RMK A01 T02200105  RH  050%=      5-min Rain = 0
KAOS 061840Z 20012KT 22/11 A2998 RMK A01 T02210109  RH  051%=      5-min Rain = 0
KAOS 061845Z 17012KT 23/10 A2997 RMK A01 T02260097  RH  045%=      5-min Rain = 0
KAOS 061850Z 18013G18KT 23/09 A2997 RMK A01 T02280093  RH  044%=      5-min Rain = 0
KAOS 061855Z 18011G18KT 23/09 A2997 RMK A01 T02270091  RH  043%=      5-min Rain = 0
KAOS 061900Z 18013G18KT 23/09 A2997 RMK A01 T02260094  RH  044%=      5-min Rain = 0
KAOS 061905Z 18013KT 22/10 A2997 RMK A01 T02230097  RH  046%=      5-min Rain = 0
KAOS 061910Z 18013KT 23/10 A2996 RMK A01 T02260099  RH  046%=      5-min Rain = 0
KAOS 061915Z 18014KT 23/09 A2996 RMK A01 T02320093  RH  042%=      5-min Rain = 0
KAOS 061920Z 18015G20KT 24/09 A2996 RMK A01 T02370092  RH  041%=      5-min Rain = 0
KAOS 061925Z 18016G21KT 24/07 A2996 RMK A01 T02370073  RH  036%=      5-min Rain = 0
KAOS 061930Z 17015KT 24/07 A2996 RMK A01 T02400070  RH  034%=      5-min Rain = 0
KAOS 061935Z 17015G21KT 24/07 A2995 RMK A01 T02440072  RH  034%=      5-min Rain = 0
KAOS 061940Z 17015KT 24/08 A2995 RMK A01 T02430080  RH  036%=      5-min Rain = 0
KAOS 061945Z 18015KT 24/08 A2995 RMK A01 T02390080  RH  037%=      5-min Rain = 0
KAOS 061950Z 17015G20KT 24/08 A2995 RMK A01 T02420077  RH  036%=      5-min Rain = 0
KAOS 061955Z 16015KT 25/06 A2995 RMK A01 T02470056  RH  030%=      5-min Rain = 0
KAOS 062000Z 18015KT 25/06 A2994 RMK A01 T02480058  RH  030%=      5-min Rain = 0
KAOS 062005Z 17016G21KT 25/07 A2994 RMK A01 T02510069  RH  032%=      5-min Rain = 0
KAOS 062010Z 16017G23KT 25/06 A2994 RMK A01 T02540064  RH  030%=      5-min Rain = 0
KAOS 062015Z 16015G20KT 25/07 A2994 RMK A01 T02510074  RH  033%=      5-min Rain = 0
KAOS 062020Z 18014G20KT 26/07 A2994 RMK A01 T02550071  RH  032%=      5-min Rain = 0
KAOS 062025Z 17016KT 25/07 A2994 RMK A01 T02520071  RH  032%=      5-min Rain = 0
KAOS 062030Z 18015G21KT 25/06 A2993 RMK A01 T02510059  RH  030%=      5-min Rain = 0
KAOS 062035Z 17015G20KT 25/07 A2993 RMK A01 T02530066  RH  031%=      5-min Rain = 0
KAOS 062040Z 17015KT 25/07 A2993 RMK A01 T02520065  RH  031%=      5-min Rain = 0
KAOS 062045Z 16013G19KT 25/08 A2993 RMK A01 T02470076  RH  034%=      5-min Rain = 0
KAOS 062050Z 17015G21KT 25/08 A2993 RMK A01 T02500082  RH  035%=      5-min Rain = 0
KAOS 062055Z 16015G20KT 25/10 A2993 RMK A01 T02450098  RH  041%=      5-min Rain = 0
KAOS 062100Z 17017G22KT 24/11 A2993 RMK A01 T02440106  RH  043%=      5-min Rain = 0
KAOS 062105Z 17016G21KT 24/11 A2993 RMK A01 T02440109  RH  044%=      5-min Rain = 0
KAOS 062110Z 17014G21KT 24/11 A2993 RMK A01 T02390113  RH  047%=      5-min Rain = 0
KAOS 062115Z 17014KT 24/11 A2993 RMK A01 T02440106  RH  043%=      5-min Rain = 0
KAOS 062120Z 16015G20KT 24/11 A2992 RMK A01 T02440111  RH  045%=      5-min Rain = 0
KAOS 062125Z 17017KT 24/11 A2992 RMK A01 T02420107  RH  044%=      5-min Rain = 0
KAOS 062130Z 17015KT 24/10 A2992 RMK A01 T02430101  RH  042%=      5-min Rain = 0
KAOS 062135Z 17015G20KT 24/10 A2992 RMK A01 T02440104  RH  042%=      5-min Rain = 0
KAOS 062140Z 18015KT 25/10 A2991 RMK A01 T02450098  RH  041%=      5-min Rain = 0
KAOS 062145Z 18015G20KT 25/10 A2991 RMK A01 T02450099  RH  041%=      5-min Rain = 0
KAOS 062150Z 17016G22KT 24/10 A2991 RMK A01 T02410099  RH  042%=      5-min Rain = 0
KAOS 062155Z 17015G20KT 24/10 A2991 RMK A01 T02430103  RH  043%=      5-min Rain = 0
KAOS 062200Z 18015G20KT 24/10 A2991 RMK A01 T02430098  RH  041%=      5-min Rain = 0
KAOS 062205Z 18013G18KT 24/09 A2991 RMK A01 T02430092  RH  039%=      5-min Rain = 0
KAOS 062210Z 18013KT 24/09 A299 RMK A01 T02430088  RH  038%=      5-min Rain = 0
KAOS 062215Z 19015G20KT 24/09 A299 RMK A01 T02440092  RH  039%=      5-min Rain = 0
KAOS 062220Z 19014KT 24/09 A2991 RMK A01 T02430090  RH  039%=      5-min Rain = 0
KAOS 062225Z 17016KT 24/10 A2991 RMK A01 T02410098  RH  042%=      5-min Rain = 0
KAOS 062230Z 18014G19KT 24/10 A2991 RMK A01 T02400097  RH  042%=      5-min Rain = 0
KAOS 062235Z 17017KT 24/10 A2991 RMK A01 T02390100  RH  043%=      5-min Rain = 0
KAOS 062240Z 19015G21KT 24/09 A2991 RMK A01 T02380090  RH  040%=      5-min Rain = 0
KAOS 062245Z 19015G20KT 24/10 A2991 RMK A01 T02380096  RH  042%=      5-min Rain = 0
KAOS 062250Z 18015G21KT 24/09 A2991 RMK A01 T02370090  RH  040%=      5-min Rain = 0
KAOS 062255Z 19014KT 24/09 A2991 RMK A01 T02360088  RH  040%=      5-min Rain = 0
KAOS 062300Z 18013KT 24/10 A2991 RMK A01 T02360098  RH  043%=      5-min Rain = 0
KAOS 062305Z 19012KT 24/09 A2991 RMK A01 T02370094  RH  041%=      5-min Rain = 0
KAOS 062310Z 18015KT 24/10 A2991 RMK A01 T02360104  RH  045%=      5-min Rain = 0
KAOS 062315Z 18015KT 23/10 A2991 RMK A01 T02330103  RH  045%=      5-min Rain = 0
KAOS 062320Z 18015KT 23/10 A2991 RMK A01 T02320104  RH  046%=      5-min Rain = 0
KAOS 062325Z 18015KT 23/10 A2991 RMK A01 T02310102  RH  045%=      5-min Rain = 0
KAOS 062330Z 18013KT 23/10 A2991 RMK A01 T02320102  RH  045%=      5-min Rain = 0
KAOS 062335Z 17013KT 23/11 A2991 RMK A01 T02300107  RH  047%=      5-min Rain = 0
KAOS 062340Z 18014G19KT 23/11 A2991 RMK A01 T02300106  RH  047%=      5-min Rain = 0
KAOS 062345Z 18015KT 23/10 A2991 RMK A01 T02290102  RH  046%=      5-min Rain = 0
KAOS 062350Z 18014KT 23/10 A2992 RMK A01 T02280103  RH  046%=      5-min Rain = 0
KAOS 062355Z 18013KT 23/10 A2992 RMK A01 T02280101  RH  046%=      5-min Rain = 0
KAOS 070000Z 17013KT 23/11 A2991 RMK A01 T02270105  RH  048%=      5-min Rain = 0
KAOS 070005Z 17015KT 23/11 A2991 RMK A01 T02250108  RH  049%=      5-min Rain = 0
KAOS 070010Z 17014KT 22/11 A2992 RMK A01 T02220114  RH  052%=      5-min Rain = 0
KAOS 070015Z 17015KT 22/11 A2992 RMK A01 T02210113  RH  052%=      5-min Rain = 0
KAOS 070020Z 17014G19KT 22/11 A2992 RMK A01 T02190112  RH  052%=      5-min Rain = 0
KAOS 070025Z 17014KT 22/11 A2992 RMK A01 T02190111  RH  052%=      5-min Rain = 0
KAOS 070030Z 17013KT 22/11 A2992 RMK A01 T02170110  RH  052%=      5-min Rain = 0
KAOS 070035Z 16012KT 22/11 A2993 RMK A01 T02160113  RH  054%=      5-min Rain = 0
KAOS 070040Z 17013KT 21/12 A2992 RMK A01 T02140116  RH  055%=      5-min Rain = 0
KAOS 070045Z 17013KT 21/12 A2992 RMK A01 T02130116  RH  056%=      5-min Rain = 0
KAOS 070050Z 16012G17KT 21/12 A2993 RMK A01 T02120117  RH  057%=      5-min Rain = 0
KAOS 070055Z 16012KT 21/12 A2992 RMK A01 T02100117  RH  057%=      5-min Rain = 0
KAOS 070100Z 16011KT 21/12 A2992 RMK A01 T02070117  RH  058%=      5-min Rain = 0
KAOS 070105Z 16011KT 21/12 A2992 RMK A01 T02050117  RH  059%=      5-min Rain = 0
KAOS 070110Z 16012KT 20/12 A2992 RMK A01 T02040117  RH  060%=      5-min Rain = 0
KAOS 070115Z 16013KT 20/12 A2993 RMK A01 T02030118  RH  060%=      5-min Rain = 0
KAOS 070120Z 17012KT 20/12 A2993 RMK A01 T02000118  RH  062%=      5-min Rain = 0
KAOS 070125Z 17011KT 20/12 A2993 RMK A01 T01980119  RH  063%=      5-min Rain = 0
KAOS 070130Z 17011KT 20/12 A2993 RMK A01 T01960119  RH  064%=      5-min Rain = 0
KAOS 070135Z 17011KT 19/12 A2993 RMK A01 T01940120  RH  065%=      5-min Rain = 0
KAOS 070140Z 17012KT 19/12 A2994 RMK A01 T01940121  RH  065%=      5-min Rain = 0
KAOS 070145Z 17011KT 19/12 A2994 RMK A01 T01930122  RH  066%=      5-min Rain = 0
KAOS 070150Z 17012KT 19/12 A2994 RMK A01 T01920122  RH  067%=      5-min Rain = 0
KAOS 070155Z 17011KT 19/12 A2994 RMK A01 T01910122  RH  067%=      5-min Rain = 0
KAOS 070200Z 17010KT 19/12 A2994 RMK A01 T01900122  RH  067%=      5-min Rain = 0
KAOS 070205Z 17009KT 19/12 A2994 RMK A01 T01870121  RH  068%=      5-min Rain = 0
KAOS 070210Z 17010KT 19/12 A2994 RMK A01 T01860121  RH  068%=      5-min Rain = 0
KAOS 070215Z 17010KT 19/12 A2994 RMK A01 T01850121  RH  069%=      5-min Rain = 0
KAOS 070220Z 17010KT 18/12 A2995 RMK A01 T01840120  RH  069%=      5-min Rain = 0
KAOS 070225Z 17010KT 18/12 A2994 RMK A01 T01830120  RH  069%=      5-min Rain = 0
KAOS 070230Z 17010KT 18/12 A2995 RMK A01 T01810120  RH  070%=      5-min Rain = 0
KAOS 070235Z 17011KT 18/12 A2995 RMK A01 T01800120  RH  071%=      5-min Rain = 0
KAOS 070240Z 18011KT 18/12 A2995 RMK A01 T01790121  RH  071%=      5-min Rain = 0
KAOS 070245Z 17012KT 18/12 A2995 RMK A01 T01800121  RH  071%=      5-min Rain = 0
KAOS 070250Z 17012KT 18/12 A2996 RMK A01 T01810122  RH  071%=      5-min Rain = 0
KAOS 070255Z 17012KT 18/12 A2996 RMK A01 T01820122  RH  071%=      5-min Rain = 0
KAOS 070300Z 17012KT 18/12 A2996 RMK A01 T01810122  RH  071%=      5-min Rain = 0
KAOS 070305Z 17011KT 18/12 A2996 RMK A01 T01800122  RH  071%=      5-min Rain = 0
KAOS 070310Z 17011KT 18/12 A2996 RMK A01 T01810122  RH  071%=      5-min Rain = 0
KAOS 070315Z 17011KT 18/12 A2996 RMK A01 T01810122  RH  071%=      5-min Rain = 0
KAOS 070320Z 17011KT 18/12 A2997 RMK A01 T01800122  RH  071%=      5-min Rain = 0
KAOS 070325Z 17011KT 18/12 A2997 RMK A01 T01790122  RH  072%=      5-min Rain = 0
KAOS 070330Z 17010KT 18/12 A2997 RMK A01 T01770121  RH  072%=      5-min Rain = 0
KAOS 070335Z 17010KT 18/12 A2997 RMK A01 T01760120  RH  073%=      5-min Rain = 0
KAOS 070340Z 17010KT 18/12 A2997 RMK A01 T01750120  RH  073%=      5-min Rain = 0
KAOS 070345Z 18010KT 17/12 A2998 RMK A01 T01740119  RH  073%=      5-min Rain = 0
KAOS 070350Z 17010KT 17/12 A2998 RMK A01 T01730119  RH  073%=      5-min Rain = 0
KAOS 070355Z 17010KT 17/12 A2998 RMK A01 T01730119  RH  073%=      5-min Rain = 0
KAOS 070400Z 17010KT 17/12 A2998 RMK A01 T01730119  RH  073%=      5-min Rain = 0
KAOS 070405Z 17009KT 17/12 A2998 RMK A01 T01730119  RH  073%=      5-min Rain = 0
KAOS 070410Z 17009KT 17/12 A2998 RMK A01 T01710118  RH  073%=      5-min Rain = 0
KAOS 070415Z 17010KT 17/12 A2998 RMK A01 T01700117  RH  074%=      5-min Rain = 0
KAOS 070420Z 17010KT 17/12 A2998 RMK A01 T01690117  RH  074%=      5-min Rain = 0
KAOS 070425Z 18010KT 17/12 A2998 RMK A01 T01680116  RH  074%=      5-min Rain = 0
KAOS 070430Z 18011KT 17/12 A2998 RMK A01 T01680116  RH  074%=      5-min Rain = 0
KAOS 070435Z 18010KT 17/12 A2998 RMK A01 T01680116  RH  074%=      5-min Rain = 0
KAOS 070440Z 18009KT 17/12 A2998 RMK A01 T01670115  RH  074%=      5-min Rain = 0
KAOS 070445Z 19009KT 17/12 A2998 RMK A01 T01670115  RH  074%=      5-min Rain = 0
KAOS 070450Z 19010KT 17/11 A2998 RMK A01 T01660114  RH  074%=      5-min Rain = 0
KAOS 070455Z 19010KT 16/11 A2998 RMK A01 T01640113  RH  075%=      5-min Rain = 0

Page generated in 0.0092 seconds.